Author: Atc Writer

news

Everything works fine now so no news about that. Added a very nice movie of an aerobatic show in the download section under civil aviation. THIS YOU MUST SEE. Click below for a direct...

Downloads

Hi there, Today I added a few movies again in the download section of this website. Go check it out (if you like). I found a lot more movies on the internet and I’ll...

griekse spotters

Liefhebbers, op onderstaande link zie je de uitzending van “Studio NL” op het satellietkanaal van de Wereldomroep, met daarin de “Griekse spotters” en nog iemand, van afgelopen vrijdag… (je moet wel een stukje doorspoelen…)...

news

Today we re-organized the scanners and all 4 Amsterdam Schiphol streams (we are not providing the ATIS stream) are working again 🙂 We replaced one scanner (thanx Mike) which is really broken, so unfortunatelly...

Tower simulator!!!!

WAUW, you remember Tower (ATC simulation)?? You can download it from this site (download section). One of the most beautiful photo realistic simulations ever…. Great program, unfortunatelly it didn’t seem to work under windows...

News

Runway 27 localizer broken Runway 27 Glidescope broken Weather Delta ZCZCSA271425 EHAM METAR EHAM 271425Z 26047G64KT 230V290 5000 RA SCT025 BKN035 OVC045 10/08 Q0993 TEMPO 4000 RA SCT012 BKN018=Runway in use : 27 with...

28

ZCZC SA271425 EHAM METAR EHAM 271425Z 26047G64KT 230V290 5000 RA SCT025 BKN035 OVC045 10/08 Q0993 TEMPO 4000 RA SCT012 BKN018=Hike

Streams down

From this afternoon the first 3 Schiphol streams went down 🙁 The server on which these streams run has a software bug and thanx to windows it ‘hangs’ instead of automatic restart. If this...

News

It took a while but the download section of this website is FINISHED. It has been optimized and better organized. All links work fine now (if not, please report a broken link) and a...

%d bloggers like this: